sensor_id;sensor_type;location;lat;lon;timestamp;pressure;altitude;pressure_sealevel;temperature;humidity
21102;BME280;10709;49.006;12.100;2023-03-04T00:02:08;48593.25;;;-146.00;62.19
21102;BME280;10709;49.006;12.100;2023-03-04T00:04:34;48640.25;;;-146.00;62.23
21102;BME280;10709;49.006;12.100;2023-03-04T00:07:01;48608.91;;;-146.00;62.34
21102;BME280;10709;49.006;12.100;2023-03-04T00:09:27;48589.31;;;-146.00;62.06
21102;BME280;10709;49.006;12.100;2023-03-04T00:11:54;48630.47;;;-146.00;62.00
21102;BME280;10709;49.006;12.100;2023-03-04T00:14:20;48608.91;;;-146.00;62.03
21102;BME280;10709;49.006;12.100;2023-03-04T00:16:47;48624.59;;;-146.00;62.25
21102;BME280;10709;49.006;12.100;2023-03-04T00:19:14;48626.53;;;-146.00;62.17
21102;BME280;10709;49.006;12.100;2023-03-04T00:21:41;48612.84;;;-146.00;62.34
21102;BME280;10709;49.006;12.100;2023-03-04T00:24:07;48601.06;;;-146.00;62.55
21102;BME280;10709;49.006;12.100;2023-03-04T00:26:34;48593.25;;;-146.00;62.55
21102;BME280;10709;49.006;12.100;2023-03-04T00:29:00;48608.91;;;-146.00;62.63
21102;BME280;10709;49.006;12.100;2023-03-04T00:31:27;48614.78;;;-146.00;62.67
21102;BME280;10709;49.006;12.100;2023-03-04T00:33:53;48605.00;;;-146.00;62.38
21102;BME280;10709;49.006;12.100;2023-03-04T00:36:20;48612.84;;;-146.00;62.32
21102;BME280;10709;49.006;12.100;2023-03-04T00:38:46;48603.03;;;-146.00;62.39
21102;BME280;10709;49.006;12.100;2023-03-04T00:41:13;48612.84;;;-146.00;62.64
21102;BME280;10709;49.006;12.100;2023-03-04T00:43:39;48593.25;;;-146.00;62.60
21102;BME280;10709;49.006;12.100;2023-03-04T00:46:06;48603.03;;;-146.00;62.65
21102;BME280;10709;49.006;12.100;2023-03-04T00:48:32;48605.00;;;-146.00;62.85
21102;BME280;10709;49.006;12.100;2023-03-04T00:50:59;48597.16;;;-146.00;63.22
21102;BME280;10709;49.006;12.100;2023-03-04T00:53:25;48587.38;;;-146.00;63.52
21102;BME280;10709;49.006;12.100;2023-03-04T00:55:52;48612.84;;;-146.00;63.38
21102;BME280;10709;49.006;12.100;2023-03-04T00:58:18;48620.66;;;-146.00;63.31
21102;BME280;10709;49.006;12.100;2023-03-04T01:00:44;48612.84;;;-146.00;63.25
21102;BME280;10709;49.006;12.100;2023-03-04T01:03:11;48610.88;;;-146.00;63.84
21102;BME280;10709;49.006;12.100;2023-03-04T01:05:37;48612.84;;;-146.00;63.93
21102;BME280;10709;49.006;12.100;2023-03-04T01:08:05;48618.72;;;-146.00;63.83
21102;BME280;10709;49.006;12.100;2023-03-04T01:10:32;48628.50;;;-146.00;63.69
21102;BME280;10709;49.006;12.100;2023-03-04T01:12:58;48612.84;;;-146.00;64.17
21102;BME280;10709;49.006;12.100;2023-03-04T01:15:25;48620.66;;;-146.00;63.96
21102;BME280;10709;49.006;12.100;2023-03-04T01:17:51;48597.16;;;-146.00;64.28
21102;BME280;10709;49.006;12.100;2023-03-04T01:20:18;48612.84;;;-146.00;64.17
21102;BME280;10709;49.006;12.100;2023-03-04T01:22:44;48593.25;;;-146.00;64.33
21102;BME280;10709;49.006;12.100;2023-03-04T01:25:11;48593.25;;;-146.00;64.26
21102;BME280;10709;49.006;12.100;2023-03-04T01:27:37;48595.19;;;-146.00;64.10
21102;BME280;10709;49.006;12.100;2023-03-04T01:30:04;48605.00;;;-146.00;64.01
21102;BME280;10709;49.006;12.100;2023-03-04T01:32:31;48601.06;;;-146.00;64.42
21102;BME280;10709;49.006;12.100;2023-03-04T01:34:57;48589.31;;;-146.00;64.25
21102;BME280;10709;49.006;12.100;2023-03-04T01:37:24;48616.75;;;-146.00;64.43
21102;BME280;10709;49.006;12.100;2023-03-04T01:39:51;48608.91;;;-146.00;64.62
21102;BME280;10709;49.006;12.100;2023-03-04T01:42:20;48616.75;;;-146.00;64.44
21102;BME280;10709;49.006;12.100;2023-03-04T01:44:47;48634.38;;;-146.00;64.56
21102;BME280;10709;49.006;12.100;2023-03-04T01:47:15;48620.66;;;-146.00;64.13
21102;BME280;10709;49.006;12.100;2023-03-04T01:49:41;48628.50;;;-146.00;64.60
21102;BME280;10709;49.006;12.100;2023-03-04T01:52:12;48608.91;;;-146.00;64.70
21102;BME280;10709;49.006;12.100;2023-03-04T01:54:39;48599.13;;;-146.00;64.77
21102;BME280;10709;49.006;12.100;2023-03-04T01:57:15;48599.13;;;-146.00;64.92
21102;BME280;10709;49.006;12.100;2023-03-04T01:59:42;48618.72;;;-146.00;65.15
21102;BME280;10709;49.006;12.100;2023-03-04T02:02:09;48597.16;;;-146.00;65.07
21102;BME280;10709;49.006;12.100;2023-03-04T02:04:36;48593.25;;;-146.00;64.81
21102;BME280;10709;49.006;12.100;2023-03-04T02:07:03;48601.06;;;-146.00;64.96
21102;BME280;10709;49.006;12.100;2023-03-04T02:09:31;48597.16;;;-146.00;65.02
21102;BME280;10709;49.006;12.100;2023-03-04T02:11:59;48603.03;;;-146.00;64.91
21102;BME280;10709;49.006;12.100;2023-03-04T02:14:27;48597.16;;;-146.00;64.96
21102;BME280;10709;49.006;12.100;2023-03-04T02:16:53;48616.75;;;-146.00;65.07
21102;BME280;10709;49.006;12.100;2023-03-04T02:22:05;48605.00;;;-146.00;65.21
21102;BME280;10709;49.006;12.100;2023-03-04T02:24:42;48608.91;;;-146.00;65.04
21102;BME280;10709;49.006;12.100;2023-03-04T02:27:11;48597.16;;;-146.00;65.24
21102;BME280;10709;49.006;12.100;2023-03-04T02:29:38;48618.72;;;-146.00;65.48
21102;BME280;10709;49.006;12.100;2023-03-04T02:32:05;48605.00;;;-146.00;65.46
21102;BME280;10709;49.006;12.100;2023-03-04T02:34:33;48620.66;;;-146.00;65.62
21102;BME280;10709;49.006;12.100;2023-03-04T02:37:00;48601.06;;;-146.00;65.51
21102;BME280;10709;49.006;12.100;2023-03-04T02:39:32;48612.84;;;-146.00;65.38
21102;BME280;10709;49.006;12.100;2023-03-04T02:42:00;48601.06;;;-146.00;65.33
21102;BME280;10709;49.006;12.100;2023-03-04T02:44:29;48593.25;;;-146.00;65.24
21102;BME280;10709;49.006;12.100;2023-03-04T02:46:57;48585.41;;;-146.00;65.42
21102;BME280;10709;49.006;12.100;2023-03-04T02:49:25;48606.94;;;-146.00;65.49
21102;BME280;10709;49.006;12.100;2023-03-04T02:52:02;48577.56;;;-146.00;65.68
21102;BME280;10709;49.006;12.100;2023-03-04T02:54:29;48597.16;;;-146.00;65.77
21102;BME280;10709;49.006;12.100;2023-03-04T02:57:01;48571.69;;;-146.00;65.83
21102;BME280;10709;49.006;12.100;2023-03-04T02:59:29;48605.00;;;-146.00;66.00
21102;BME280;10709;49.006;12.100;2023-03-04T03:01:56;48597.16;;;-146.00;65.82
21102;BME280;10709;49.006;12.100;2023-03-04T03:04:23;48583.44;;;-146.00;65.92
21102;BME280;10709;49.006;12.100;2023-03-04T03:06:50;48589.31;;;-146.00;65.94
21102;BME280;10709;49.006;12.100;2023-03-04T03:09:18;48618.72;;;-146.00;65.89
21102;BME280;10709;49.006;12.100;2023-03-04T03:11:45;48618.72;;;-146.00;65.62
21102;BME280;10709;49.006;12.100;2023-03-04T03:14:11;48573.66;;;-146.00;65.83
21102;BME280;10709;49.006;12.100;2023-03-04T03:16:38;48597.16;;;-146.00;65.75
21102;BME280;10709;49.006;12.100;2023-03-04T03:19:05;48605.00;;;-146.00;66.04
21102;BME280;10709;49.006;12.100;2023-03-04T03:21:31;48612.84;;;-146.00;65.77
21102;BME280;10709;49.006;12.100;2023-03-04T03:23:58;48608.91;;;-146.00;66.20
21102;BME280;10709;49.006;12.100;2023-03-04T03:26:24;48597.16;;;-146.00;65.98
21102;BME280;10709;49.006;12.100;2023-03-04T03:28:51;48605.00;;;-146.00;66.21
21102;BME280;10709;49.006;12.100;2023-03-04T03:31:17;48620.66;;;-146.00;65.82
21102;BME280;10709;49.006;12.100;2023-03-04T03:33:45;48616.75;;;-146.00;66.44
21102;BME280;10709;49.006;12.100;2023-03-04T03:36:12;48599.13;;;-146.00;66.49
21102;BME280;10709;49.006;12.100;2023-03-04T03:38:39;48585.41;;;-146.00;65.90
21102;BME280;10709;49.006;12.100;2023-03-04T03:41:05;48605.00;;;-146.00;66.13
21102;BME280;10709;49.006;12.100;2023-03-04T03:43:32;48628.50;;;-146.00;66.23
21102;BME280;10709;49.006;12.100;2023-03-04T03:45:58;48601.06;;;-146.00;66.22
21102;BME280;10709;49.006;12.100;2023-03-04T03:48:24;48601.06;;;-146.00;65.90
21102;BME280;10709;49.006;12.100;2023-03-04T03:50:51;48589.31;;;-146.00;66.43
21102;BME280;10709;49.006;12.100;2023-03-04T03:53:18;48616.75;;;-146.00;66.74
21102;BME280;10709;49.006;12.100;2023-03-04T03:55:44;48573.66;;;-146.00;66.29
21102;BME280;10709;49.006;12.100;2023-03-04T03:58:10;48573.66;;;-146.00;66.50
21102;BME280;10709;49.006;12.100;2023-03-04T04:00:37;48589.31;;;-146.00;66.85
21102;BME280;10709;49.006;12.100;2023-03-04T04:03:04;48601.06;;;-146.00;66.78
21102;BME280;10709;49.006;12.100;2023-03-04T04:05:30;48565.81;;;-146.00;66.38
21102;BME280;10709;49.006;12.100;2023-03-04T04:07:57;48581.50;;;-146.00;66.17
21102;BME280;10709;49.006;12.100;2023-03-04T04:10:23;48593.25;;;-146.00;66.66
21102;BME280;10709;49.006;12.100;2023-03-04T04:12:50;48585.41;;;-146.00;66.50
21102;BME280;10709;49.006;12.100;2023-03-04T04:15:16;48577.56;;;-146.00;67.02
21102;BME280;10709;49.006;12.100;2023-03-04T04:17:43;48585.41;;;-146.00;67.18
21102;BME280;10709;49.006;12.100;2023-03-04T04:20:10;48605.00;;;-146.00;66.69
21102;BME280;10709;49.006;12.100;2023-03-04T04:22:36;48605.00;;;-146.00;67.17
21102;BME280;10709;49.006;12.100;2023-03-04T04:25:03;48601.06;;;-146.00;66.69
21102;BME280;10709;49.006;12.100;2023-03-04T04:27:30;48571.69;;;-146.00;66.83
21102;BME280;10709;49.006;12.100;2023-03-04T04:29:56;48601.06;;;-146.00;67.49
21102;BME280;10709;49.006;12.100;2023-03-04T04:32:23;48628.50;;;-146.00;67.32
21102;BME280;10709;49.006;12.100;2023-03-04T04:34:49;48605.00;;;-146.00;67.72
21102;BME280;10709;49.006;12.100;2023-03-04T04:37:16;48626.53;;;-146.00;67.54
21102;BME280;10709;49.006;12.100;2023-03-04T04:39:42;48595.19;;;-146.00;68.04
21102;BME280;10709;49.006;12.100;2023-03-04T04:42:09;48597.16;;;-146.00;67.47
21102;BME280;10709;49.006;12.100;2023-03-04T04:44:36;48591.28;;;-146.00;67.69
21102;BME280;10709;49.006;12.100;2023-03-04T04:47:05;48587.38;;;-146.00;68.07
21102;BME280;10709;49.006;12.100;2023-03-04T04:49:32;48601.06;;;-146.00;68.02
21102;BME280;10709;49.006;12.100;2023-03-04T04:51:59;48581.50;;;-146.00;68.18
21102;BME280;10709;49.006;12.100;2023-03-04T04:54:26;48599.13;;;-146.00;67.90
21102;BME280;10709;49.006;12.100;2023-03-04T04:56:52;48577.56;;;-146.00;68.22
21102;BME280;10709;49.006;12.100;2023-03-04T04:59:19;48593.25;;;-146.00;68.39
21102;BME280;10709;49.006;12.100;2023-03-04T05:01:45;48581.50;;;-146.00;68.26
21102;BME280;10709;49.006;12.100;2023-03-04T05:04:12;48589.31;;;-146.00;68.18
21102;BME280;10709;49.006;12.100;2023-03-04T05:06:38;48593.25;;;-146.00;68.35
21102;BME280;10709;49.006;12.100;2023-03-04T05:09:05;48583.44;;;-146.00;68.70
21102;BME280;10709;49.006;12.100;2023-03-04T05:11:32;48575.63;;;-146.00;68.48
21102;BME280;10709;49.006;12.100;2023-03-04T05:13:59;48597.16;;;-146.00;68.43
21102;BME280;10709;49.006;12.100;2023-03-04T05:16:26;48601.06;;;-146.00;69.05
21102;BME280;10709;49.006;12.100;2023-03-04T05:18:52;48577.56;;;-146.00;69.05
21102;BME280;10709;49.006;12.100;2023-03-04T05:21:18;48585.41;;;-146.00;69.29
21102;BME280;10709;49.006;12.100;2023-03-04T05:23:45;48605.00;;;-146.00;69.67
21102;BME280;10709;49.006;12.100;2023-03-04T05:26:14;48612.84;;;-146.00;69.78
21102;BME280;10709;49.006;12.100;2023-03-04T05:28:41;48593.25;;;-146.00;69.51
21102;BME280;10709;49.006;12.100;2023-03-04T05:31:08;48577.56;;;-146.00;69.49
21102;BME280;10709;49.006;12.100;2023-03-04T05:33:35;48597.16;;;-146.00;69.53
21102;BME280;10709;49.006;12.100;2023-03-04T05:36:03;48595.19;;;-146.00;69.91
21102;BME280;10709;49.006;12.100;2023-03-04T05:38:30;48608.91;;;-146.00;70.21
21102;BME280;10709;49.006;12.100;2023-03-04T05:40:59;48589.31;;;-146.00;71.36
21102;BME280;10709;49.006;12.100;2023-03-04T05:43:27;48581.50;;;-146.00;71.39
21102;BME280;10709;49.006;12.100;2023-03-04T05:45:54;48599.13;;;-146.00;70.95
21102;BME280;10709;49.006;12.100;2023-03-04T05:48:21;48575.63;;;-146.00;71.33
21102;BME280;10709;49.006;12.100;2023-03-04T05:50:55;48595.19;;;-146.00;71.68
21102;BME280;10709;49.006;12.100;2023-03-04T05:53:22;48593.25;;;-146.00;71.38
21102;BME280;10709;49.006;12.100;2023-03-04T05:55:49;48577.56;;;-146.00;71.68
21102;BME280;10709;49.006;12.100;2023-03-04T05:58:16;48581.50;;;-146.00;71.79
21102;BME280;10709;49.006;12.100;2023-03-04T06:00:44;48585.41;;;-146.00;71.78
21102;BME280;10709;49.006;12.100;2023-03-04T06:03:13;48597.16;;;-146.00;73.03
21102;BME280;10709;49.006;12.100;2023-03-04T06:05:41;48591.28;;;-146.00;72.73
21102;BME280;10709;49.006;12.100;2023-03-04T06:08:08;48601.06;;;-146.00;73.11
21102;BME280;10709;49.006;12.100;2023-03-04T06:10:35;48606.94;;;-146.00;72.93
21102;BME280;10709;49.006;12.100;2023-03-04T06:13:01;48593.25;;;-146.00;72.89
21102;BME280;10709;49.006;12.100;2023-03-04T06:15:28;48612.84;;;-146.00;72.75
21102;BME280;10709;49.006;12.100;2023-03-04T06:17:55;48581.50;;;-146.00;72.96
21102;BME280;10709;49.006;12.100;2023-03-04T06:20:22;48595.19;;;-146.00;72.94
21102;BME280;10709;49.006;12.100;2023-03-04T06:22:48;48575.63;;;-146.00;73.38
21102;BME280;10709;49.006;12.100;2023-03-04T06:25:15;48595.19;;;-146.00;73.37
21102;BME280;10709;49.006;12.100;2023-03-04T06:27:42;48581.50;;;-146.00;73.73
21102;BME280;10709;49.006;12.100;2023-03-04T06:30:09;48608.91;;;-146.00;73.27
21102;BME280;10709;49.006;12.100;2023-03-04T06:32:35;48581.50;;;-146.00;73.96
21102;BME280;10709;49.006;12.100;2023-03-04T06:35:02;48589.31;;;-146.00;73.94
21102;BME280;10709;49.006;12.100;2023-03-04T06:37:29;48597.16;;;-146.00;74.36
21102;BME280;10709;49.006;12.100;2023-03-04T06:39:55;48597.16;;;-146.00;74.89
21102;BME280;10709;49.006;12.100;2023-03-04T06:42:22;48557.97;;;-146.00;74.82
21102;BME280;10709;49.006;12.100;2023-03-04T06:44:48;48608.91;;;-146.00;74.75
21102;BME280;10709;49.006;12.100;2023-03-04T06:47:15;48579.53;;;-146.00;74.86
21102;BME280;10709;49.006;12.100;2023-03-04T06:49:41;48587.38;;;-146.00;75.30
21102;BME280;10709;49.006;12.100;2023-03-04T06:52:08;48581.50;;;-146.00;75.48
21102;BME280;10709;49.006;12.100;2023-03-04T06:54:38;48589.31;;;-146.00;75.06
21102;BME280;10709;49.006;12.100;2023-03-04T06:57:05;48606.94;;;-146.00;75.27
21102;BME280;10709;49.006;12.100;2023-03-04T06:59:32;48573.66;;;-146.00;75.28
21102;BME280;10709;49.006;12.100;2023-03-04T07:01:59;48605.00;;;-146.00;75.56
21102;BME280;10709;49.006;12.100;2023-03-04T07:04:26;48601.06;;;-146.00;75.35
21102;BME280;10709;49.006;12.100;2023-03-04T07:06:52;48610.88;;;-146.00;75.64
21102;BME280;10709;49.006;12.100;2023-03-04T07:09:19;48581.50;;;-146.00;75.83
21102;BME280;10709;49.006;12.100;2023-03-04T07:11:45;48618.72;;;-146.00;75.94
21102;BME280;10709;49.006;12.100;2023-03-04T07:14:12;48610.88;;;-146.00;76.04
21102;BME280;10709;49.006;12.100;2023-03-04T07:16:38;48608.91;;;-146.00;76.22
21102;BME280;10709;49.006;12.100;2023-03-04T07:19:05;48567.78;;;-146.00;76.15
21102;BME280;10709;49.006;12.100;2023-03-04T07:21:31;48587.38;;;-146.00;76.66
21102;BME280;10709;49.006;12.100;2023-03-04T07:23:58;48587.38;;;-146.00;76.98
21102;BME280;10709;49.006;12.100;2023-03-04T07:26:25;48593.25;;;-146.00;76.10
21102;BME280;10709;49.006;12.100;2023-03-04T07:28:51;48597.16;;;-146.00;75.60
21102;BME280;10709;49.006;12.100;2023-03-04T07:31:23;48593.25;;;-146.00;75.62
21102;BME280;10709;49.006;12.100;2023-03-04T07:33:50;48581.50;;;-146.00;78.14
21102;BME280;10709;49.006;12.100;2023-03-04T07:36:17;48597.16;;;-146.00;80.40
21102;BME280;10709;49.006;12.100;2023-03-04T07:38:47;48579.53;;;-146.00;81.69
21102;BME280;10709;49.006;12.100;2023-03-04T07:41:16;48593.25;;;-146.00;80.26
21102;BME280;10709;49.006;12.100;2023-03-04T07:43:43;48608.91;;;-146.00;80.45
21102;BME280;10709;49.006;12.100;2023-03-04T07:46:11;48589.31;;;-146.00;81.05
21102;BME280;10709;49.006;12.100;2023-03-04T07:48:37;48597.16;;;-146.00;80.12
21102;BME280;10709;49.006;12.100;2023-03-04T07:51:07;48608.91;;;-146.00;79.68
21102;BME280;10709;49.006;12.100;2023-03-04T07:53:35;48605.00;;;-146.00;80.00
21102;BME280;10709;49.006;12.100;2023-03-04T07:56:03;48593.25;;;-146.00;79.12
21102;BME280;10709;49.006;12.100;2023-03-04T07:58:30;48605.00;;;-146.00;79.28
21102;BME280;10709;49.006;12.100;2023-03-04T08:00:56;48597.16;;;-146.00;78.96
21102;BME280;10709;49.006;12.100;2023-03-04T08:03:23;48603.03;;;-146.00;79.04
21102;BME280;10709;49.006;12.100;2023-03-04T08:05:50;48616.75;;;-146.00;78.84
21102;BME280;10709;49.006;12.100;2023-03-04T08:08:17;48581.50;;;-146.00;79.40
21102;BME280;10709;49.006;12.100;2023-03-04T08:10:44;48605.00;;;-146.00;78.84
21102;BME280;10709;49.006;12.100;2023-03-04T08:13:10;48599.13;;;-146.00;79.42
21102;BME280;10709;49.006;12.100;2023-03-04T08:15:41;48624.59;;;-146.00;80.33
21102;BME280;10709;49.006;12.100;2023-03-04T08:18:08;48599.13;;;-146.00;80.67
21102;BME280;10709;49.006;12.100;2023-03-04T08:20:34;48608.91;;;-146.00;80.87
21102;BME280;10709;49.006;12.100;2023-03-04T08:23:01;48616.75;;;-146.00;80.93
21102;BME280;10709;49.006;12.100;2023-03-04T08:25:27;48595.19;;;-146.00;80.98
21102;BME280;10709;49.006;12.100;2023-03-04T08:27:54;48608.91;;;-146.00;81.13
21102;BME280;10709;49.006;12.100;2023-03-04T08:30:20;48610.88;;;-146.00;80.09
21102;BME280;10709;49.006;12.100;2023-03-04T08:32:47;48589.31;;;-146.00;80.56
21102;BME280;10709;49.006;12.100;2023-03-04T08:35:13;48606.94;;;-146.00;81.16
21102;BME280;10709;49.006;12.100;2023-03-04T08:37:40;48608.91;;;-146.00;80.03
21102;BME280;10709;49.006;12.100;2023-03-04T08:40:07;48601.06;;;-146.00;79.11
21102;BME280;10709;49.006;12.100;2023-03-04T08:42:34;48601.06;;;-146.00;78.85
21102;BME280;10709;49.006;12.100;2023-03-04T08:45:00;48624.59;;;-146.00;80.14
21102;BME280;10709;49.006;12.100;2023-03-04T08:47:26;48620.66;;;-146.00;79.19
21102;BME280;10709;49.006;12.100;2023-03-04T08:49:53;48616.75;;;-146.00;79.14
21102;BME280;10709;49.006;12.100;2023-03-04T08:52:20;48640.25;;;-146.00;79.05
21102;BME280;10709;49.006;12.100;2023-03-04T08:54:46;48636.34;;;-146.00;79.18
21102;BME280;10709;49.006;12.100;2023-03-04T08:57:13;48636.34;;;-146.00;79.45
21102;BME280;10709;49.006;12.100;2023-03-04T08:59:39;48608.91;;;-146.00;79.44
21102;BME280;10709;49.006;12.100;2023-03-04T09:02:05;48608.91;;;-146.00;79.29
21102;BME280;10709;49.006;12.100;2023-03-04T09:04:32;48608.91;;;-146.00;78.38
21102;BME280;10709;49.006;12.100;2023-03-04T09:06:58;48624.59;;;-146.00;78.23
21102;BME280;10709;49.006;12.100;2023-03-04T09:09:25;48608.91;;;-146.00;77.24
21102;BME280;10709;49.006;12.100;2023-03-04T09:11:51;48583.44;;;-146.00;77.20
21102;BME280;10709;49.006;12.100;2023-03-04T09:14:18;48599.13;;;-146.00;77.43
21102;BME280;10709;49.006;12.100;2023-03-04T09:16:44;48601.06;;;-146.00;77.46
21102;BME280;10709;49.006;12.100;2023-03-04T09:19:10;48595.19;;;-146.00;77.09
21102;BME280;10709;49.006;12.100;2023-03-04T09:21:37;48628.50;;;-146.00;77.45
21102;BME280;10709;49.006;12.100;2023-03-04T09:24:03;48616.75;;;-146.00;76.79
21102;BME280;10709;49.006;12.100;2023-03-04T09:26:30;48605.00;;;-146.00;76.69
21102;BME280;10709;49.006;12.100;2023-03-04T09:28:59;48593.25;;;-146.00;76.82
21102;BME280;10709;49.006;12.100;2023-03-04T09:31:27;48606.94;;;-146.00;76.63
21102;BME280;10709;49.006;12.100;2023-03-04T09:33:55;48597.16;;;-146.00;77.13
21102;BME280;10709;49.006;12.100;2023-03-04T09:36:22;48606.94;;;-146.00;76.53
21102;BME280;10709;49.006;12.100;2023-03-04T09:38:48;48597.16;;;-146.00;76.83
21102;BME280;10709;49.006;12.100;2023-03-04T09:41:17;48628.50;;;-146.00;77.22
21102;BME280;10709;49.006;12.100;2023-03-04T09:43:47;48601.06;;;-146.00;76.53
21102;BME280;10709;49.006;12.100;2023-03-04T09:46:18;48603.03;;;-146.00;76.38
21102;BME280;10709;49.006;12.100;2023-03-04T09:48:51;48620.66;;;-146.00;76.03
21102;BME280;10709;49.006;12.100;2023-03-04T09:56:56;48605.00;;;-146.00;75.68
21102;BME280;10709;49.006;12.100;2023-03-04T09:59:29;48603.03;;;-146.00;74.91
21102;BME280;10709;49.006;12.100;2023-03-04T10:01:58;48597.16;;;-146.00;75.15
21102;BME280;10709;49.006;12.100;2023-03-04T10:04:41;48606.94;;;-146.00;75.33
21102;BME280;10709;49.006;12.100;2023-03-04T10:07:23;48608.91;;;-146.00;75.78
21102;BME280;10709;49.006;12.100;2023-03-04T10:10:13;48612.84;;;-146.00;75.21
21102;BME280;10709;49.006;12.100;2023-03-04T10:12:45;48591.28;;;-146.00;75.17
21102;BME280;10709;49.006;12.100;2023-03-04T10:15:40;48589.31;;;-146.00;74.79
21102;BME280;10709;49.006;12.100;2023-03-04T10:18:23;48593.25;;;-146.00;74.27
21102;BME280;10709;49.006;12.100;2023-03-04T10:23:25;48624.59;;;-146.00;74.82
21102;BME280;10709;49.006;12.100;2023-03-04T10:25:52;48595.19;;;-146.00;75.92
21102;BME280;10709;49.006;12.100;2023-03-04T10:28:27;48597.16;;;-146.00;76.00
21102;BME280;10709;49.006;12.100;2023-03-04T10:33:35;48630.47;;;-146.00;75.34
21102;BME280;10709;49.006;12.100;2023-03-04T10:36:29;48608.91;;;-146.00;75.51
21102;BME280;10709;49.006;12.100;2023-03-04T10:39:09;48606.94;;;-146.00;75.16
21102;BME280;10709;49.006;12.100;2023-03-04T10:41:41;48608.91;;;-146.00;75.35
21102;BME280;10709;49.006;12.100;2023-03-04T10:46:42;48608.91;;;-146.00;74.90
21102;BME280;10709;49.006;12.100;2023-03-04T10:49:09;48597.16;;;-146.00;74.82
21102;BME280;10709;49.006;12.100;2023-03-04T10:54:41;48605.00;;;-146.00;75.08
21102;BME280;10709;49.006;12.100;2023-03-04T10:57:19;48601.06;;;-146.00;75.84
21102;BME280;10709;49.006;12.100;2023-03-04T10:59:59;48593.25;;;-146.00;75.69
21102;BME280;10709;49.006;12.100;2023-03-04T11:02:28;48612.84;;;-146.00;75.85
21102;BME280;10709;49.006;12.100;2023-03-04T11:07:30;48595.19;;;-146.00;75.61
21102;BME280;10709;49.006;12.100;2023-03-04T11:12:41;48591.28;;;-146.00;75.26
21102;BME280;10709;49.006;12.100;2023-03-04T11:15:20;48620.66;;;-146.00;75.77
21102;BME280;10709;49.006;12.100;2023-03-04T11:17:56;48616.75;;;-146.00;75.61
21102;BME280;10709;49.006;12.100;2023-03-04T11:20:26;48616.75;;;-146.00;75.70
21102;BME280;10709;49.006;12.100;2023-03-04T11:22:56;48614.78;;;-146.00;74.80
21102;BME280;10709;49.006;12.100;2023-03-04T11:25:30;48606.94;;;-146.00;75.13
21102;BME280;10709;49.006;12.100;2023-03-04T11:28:02;48597.16;;;-146.00;74.54
21102;BME280;10709;49.006;12.100;2023-03-04T11:30:54;48605.00;;;-146.00;74.52
21102;BME280;10709;49.006;12.100;2023-03-04T11:33:37;48589.31;;;-146.00;74.36
21102;BME280;10709;49.006;12.100;2023-03-04T11:36:15;48605.00;;;-146.00;74.29
21102;BME280;10709;49.006;12.100;2023-03-04T11:38:48;48605.00;;;-146.00;74.12
21102;BME280;10709;49.006;12.100;2023-03-04T11:41:19;48628.50;;;-146.00;73.88
21102;BME280;10709;49.006;12.100;2023-03-04T11:43:48;48597.16;;;-146.00;73.93
21102;BME280;10709;49.006;12.100;2023-03-04T11:46:32;48599.13;;;-146.00;73.98
21102;BME280;10709;49.006;12.100;2023-03-04T12:08:35;48591.28;;;-146.00;73.18
21102;BME280;10709;49.006;12.100;2023-03-04T12:11:23;48628.50;;;-146.00;73.09
21102;BME280;10709;49.006;12.100;2023-03-04T12:19:31;48595.19;;;-146.00;72.81
21102;BME280;10709;49.006;12.100;2023-03-04T12:22:23;48603.03;;;-146.00;72.62
21102;BME280;10709;49.006;12.100;2023-03-04T12:27:43;48595.19;;;-146.00;72.91
21102;BME280;10709;49.006;12.100;2023-03-04T12:33:26;48608.91;;;-146.00;72.32
21102;BME280;10709;49.006;12.100;2023-03-04T12:36:23;48593.25;;;-146.00;72.54
21102;BME280;10709;49.006;12.100;2023-03-04T12:38:58;48593.25;;;-146.00;72.00
21102;BME280;10709;49.006;12.100;2023-03-04T12:44:23;48616.75;;;-146.00;72.21
21102;BME280;10709;49.006;12.100;2023-03-04T12:47:21;48601.06;;;-146.00;71.78
21102;BME280;10709;49.006;12.100;2023-03-04T12:50:23;48608.91;;;-146.00;72.15
21102;BME280;10709;49.006;12.100;2023-03-04T12:55:41;48595.19;;;-146.00;71.64
21102;BME280;10709;49.006;12.100;2023-03-04T12:58:16;48581.50;;;-146.00;72.08
21102;BME280;10709;49.006;12.100;2023-03-04T13:01:06;48603.03;;;-146.00;72.42
21102;BME280;10709;49.006;12.100;2023-03-04T13:03:52;48624.59;;;-146.00;72.34
21102;BME280;10709;49.006;12.100;2023-03-04T13:13:59;48597.16;;;-146.00;72.39
21102;BME280;10709;49.006;12.100;2023-03-04T13:16:30;48638.28;;;-146.00;72.20
21102;BME280;10709;49.006;12.100;2023-03-04T13:18:58;48608.91;;;-146.00;71.83
21102;BME280;10709;49.006;12.100;2023-03-04T13:21:29;48593.25;;;-146.00;72.08
21102;BME280;10709;49.006;12.100;2023-03-04T13:24:42;48616.75;;;-146.00;71.82
21102;BME280;10709;49.006;12.100;2023-03-04T13:27:44;48593.25;;;-146.00;71.32
21102;BME280;10709;49.006;12.100;2023-03-04T13:38:32;48614.78;;;-146.00;71.64
21102;BME280;10709;49.006;12.100;2023-03-04T13:41:11;48605.00;;;-146.00;71.87
21102;BME280;10709;49.006;12.100;2023-03-04T13:43:59;48614.78;;;-146.00;72.08
21102;BME280;10709;49.006;12.100;2023-03-04T13:46:28;48589.31;;;-146.00;72.04
21102;BME280;10709;49.006;12.100;2023-03-04T13:51:28;48620.66;;;-146.00;72.03
21102;BME280;10709;49.006;12.100;2023-03-04T13:56:26;48628.50;;;-146.00;71.10
21102;BME280;10709;49.006;12.100;2023-03-04T14:02:01;48620.66;;;-146.00;71.42
21102;BME280;10709;49.006;12.100;2023-03-04T14:04:36;48593.25;;;-146.00;70.95
21102;BME280;10709;49.006;12.100;2023-03-04T14:07:17;48612.84;;;-146.00;71.32